sensor_id;sensor_type;location;lat;lon;timestamp;temperature;humidity
10968;DHT22;5536;49.602;10.980;2022-07-23T00:01:40;23.10;1.00
10968;DHT22;5536;49.602;10.980;2022-07-23T00:04:07;23.10;46.20
10968;DHT22;5536;49.602;10.980;2022-07-23T00:06:34;23.20;1.00
10968;DHT22;5536;49.602;10.980;2022-07-23T00:09:03;23.10;1.00
10968;DHT22;5536;49.602;10.980;2022-07-23T00:11:30;22.90;99.90
10968;DHT22;5536;49.602;10.980;2022-07-23T00:13:57;22.80;99.90
10968;DHT22;5536;49.602;10.980;2022-07-23T00:16:24;22.80;99.90
10968;DHT22;5536;49.602;10.980;2022-07-23T00:18:50;22.90;60.80
10968;DHT22;5536;49.602;10.980;2022-07-23T00:21:17;22.90;99.90
10968;DHT22;5536;49.602;10.980;2022-07-23T00:23:44;23.00;99.90
10968;DHT22;5536;49.602;10.980;2022-07-23T00:26:13;22.80;99.90
10968;DHT22;5536;49.602;10.980;2022-07-23T00:28:40;23.00;99.90
10968;DHT22;5536;49.602;10.980;2022-07-23T00:31:07;22.90;99.90
10968;DHT22;5536;49.602;10.980;2022-07-23T00:33:34;22.90;99.90
10968;DHT22;5536;49.602;10.980;2022-07-23T00:36:01;22.90;1.00
10968;DHT22;5536;49.602;10.980;2022-07-23T00:38:28;22.80;99.90
10968;DHT22;5536;49.602;10.980;2022-07-23T00:40:54;22.80;99.90
10968;DHT22;5536;49.602;10.980;2022-07-23T00:43:23;22.70;1.00
10968;DHT22;5536;49.602;10.980;2022-07-23T00:45:50;22.70;1.00
10968;DHT22;5536;49.602;10.980;2022-07-23T00:48:17;22.70;99.90
10968;DHT22;5536;49.602;10.980;2022-07-23T00:50:44;22.60;97.20
10968;DHT22;5536;49.602;10.980;2022-07-23T00:53:11;22.60;31.00
10968;DHT22;5536;49.602;10.980;2022-07-23T00:55:39;22.60;1.00
10968;DHT22;5536;49.602;10.980;2022-07-23T00:58:06;22.60;99.90
10968;DHT22;5536;49.602;10.980;2022-07-23T01:00:34;22.40;99.90
10968;DHT22;5536;49.602;10.980;2022-07-23T01:03:01;22.50;99.90
10968;DHT22;5536;49.602;10.980;2022-07-23T01:05:28;22.50;99.90
10968;DHT22;5536;49.602;10.980;2022-07-23T01:07:55;22.40;99.90
10968;DHT22;5536;49.602;10.980;2022-07-23T01:10:23;22.50;1.00
10968;DHT22;5536;49.602;10.980;2022-07-23T01:13:00;22.50;99.90
10968;DHT22;5536;49.602;10.980;2022-07-23T01:15:28;22.40;99.90
10968;DHT22;5536;49.602;10.980;2022-07-23T01:17:56;22.30;1.00
10968;DHT22;5536;49.602;10.980;2022-07-23T01:20:23;22.50;99.90
10968;DHT22;5536;49.602;10.980;2022-07-23T01:22:52;22.50;1.00
10968;DHT22;5536;49.602;10.980;2022-07-23T01:25:20;22.40;99.90
10968;DHT22;5536;49.602;10.980;2022-07-23T01:27:47;22.50;99.90
10968;DHT22;5536;49.602;10.980;2022-07-23T01:30:14;22.50;99.90
10968;DHT22;5536;49.602;10.980;2022-07-23T01:32:41;22.50;99.90
10968;DHT22;5536;49.602;10.980;2022-07-23T01:35:08;22.50;99.90
10968;DHT22;5536;49.602;10.980;2022-07-23T01:37:36;22.50;99.90
10968;DHT22;5536;49.602;10.980;2022-07-23T01:40:06;22.40;1.00
10968;DHT22;5536;49.602;10.980;2022-07-23T01:42:33;22.30;99.90
10968;DHT22;5536;49.602;10.980;2022-07-23T01:45:02;22.20;99.90
10968;DHT22;5536;49.602;10.980;2022-07-23T01:47:30;22.30;99.90
10968;DHT22;5536;49.602;10.980;2022-07-23T01:49:57;22.20;26.10
10968;DHT22;5536;49.602;10.980;2022-07-23T01:52:23;22.10;1.00
10968;DHT22;5536;49.602;10.980;2022-07-23T01:54:50;22.00;1.00
10968;DHT22;5536;49.602;10.980;2022-07-23T01:57:19;22.10;99.90
10968;DHT22;5536;49.602;10.980;2022-07-23T01:59:45;22.10;1.00
10968;DHT22;5536;49.602;10.980;2022-07-23T02:02:12;22.10;1.00
10968;DHT22;5536;49.602;10.980;2022-07-23T02:04:39;21.80;1.00
10968;DHT22;5536;49.602;10.980;2022-07-23T02:07:06;21.80;1.00
10968;DHT22;5536;49.602;10.980;2022-07-23T02:09:33;21.80;1.00
10968;DHT22;5536;49.602;10.980;2022-07-23T02:12:01;21.70;1.00
10968;DHT22;5536;49.602;10.980;2022-07-23T02:14:29;21.70;1.00
10968;DHT22;5536;49.602;10.980;2022-07-23T02:16:56;21.60;1.00
10968;DHT22;5536;49.602;10.980;2022-07-23T02:19:23;21.50;1.00
10968;DHT22;5536;49.602;10.980;2022-07-23T02:21:50;21.40;99.90
10968;DHT22;5536;49.602;10.980;2022-07-23T02:24:17;21.30;1.00
10968;DHT22;5536;49.602;10.980;2022-07-23T02:26:44;21.30;1.00
10968;DHT22;5536;49.602;10.980;2022-07-23T02:29:11;21.30;1.00
10968;DHT22;5536;49.602;10.980;2022-07-23T02:31:39;21.30;1.00
10968;DHT22;5536;49.602;10.980;2022-07-23T02:34:06;21.50;1.00
10968;DHT22;5536;49.602;10.980;2022-07-23T02:36:37;21.60;1.00
10968;DHT22;5536;49.602;10.980;2022-07-23T02:39:04;21.60;1.00
10968;DHT22;5536;49.602;10.980;2022-07-23T02:41:31;21.60;1.00
10968;DHT22;5536;49.602;10.980;2022-07-23T02:43:58;21.70;1.00
10968;DHT22;5536;49.602;10.980;2022-07-23T02:46:25;21.70;1.00
10968;DHT22;5536;49.602;10.980;2022-07-23T02:48:53;21.60;1.00
10968;DHT22;5536;49.602;10.980;2022-07-23T02:51:20;21.60;1.00
10968;DHT22;5536;49.602;10.980;2022-07-23T02:53:47;21.60;1.00
10968;DHT22;5536;49.602;10.980;2022-07-23T02:56:14;21.60;1.00
10968;DHT22;5536;49.602;10.980;2022-07-23T02:58:41;21.50;1.00
10968;DHT22;5536;49.602;10.980;2022-07-23T03:01:08;21.40;1.00
10968;DHT22;5536;49.602;10.980;2022-07-23T03:03:35;21.30;1.00
10968;DHT22;5536;49.602;10.980;2022-07-23T03:06:03;21.20;1.00
10968;DHT22;5536;49.602;10.980;2022-07-23T03:08:30;21.20;1.00
10968;DHT22;5536;49.602;10.980;2022-07-23T03:10:57;20.90;1.00
10968;DHT22;5536;49.602;10.980;2022-07-23T03:13:24;20.80;1.00
10968;DHT22;5536;49.602;10.980;2022-07-23T03:15:51;20.70;1.00
10968;DHT22;5536;49.602;10.980;2022-07-23T03:18:18;20.70;1.00
10968;DHT22;5536;49.602;10.980;2022-07-23T03:20:45;20.70;1.00
10968;DHT22;5536;49.602;10.980;2022-07-23T03:23:14;20.60;1.00
10968;DHT22;5536;49.602;10.980;2022-07-23T03:25:42;20.60;1.00
10968;DHT22;5536;49.602;10.980;2022-07-23T03:28:09;20.50;1.80
10968;DHT22;5536;49.602;10.980;2022-07-23T03:30:36;20.50;4.80
10968;DHT22;5536;49.602;10.980;2022-07-23T03:33:03;20.40;21.90
10968;DHT22;5536;49.602;10.980;2022-07-23T03:35:30;20.30;27.10
10968;DHT22;5536;49.602;10.980;2022-07-23T03:37:56;20.30;38.30
10968;DHT22;5536;49.602;10.980;2022-07-23T03:40:25;20.20;53.20
10968;DHT22;5536;49.602;10.980;2022-07-23T03:42:52;20.10;49.60
10968;DHT22;5536;49.602;10.980;2022-07-23T03:45:19;20.10;48.30
10968;DHT22;5536;49.602;10.980;2022-07-23T03:47:45;20.00;58.50
10968;DHT22;5536;49.602;10.980;2022-07-23T03:50:12;20.00;58.40
10968;DHT22;5536;49.602;10.980;2022-07-23T03:52:40;20.00;69.60
10968;DHT22;5536;49.602;10.980;2022-07-23T03:55:07;20.00;79.30
10968;DHT22;5536;49.602;10.980;2022-07-23T03:57:35;20.00;81.40
10968;DHT22;5536;49.602;10.980;2022-07-23T04:00:03;20.10;66.20
10968;DHT22;5536;49.602;10.980;2022-07-23T04:02:31;20.10;80.80
10968;DHT22;5536;49.602;10.980;2022-07-23T04:04:58;20.10;69.10
10968;DHT22;5536;49.602;10.980;2022-07-23T04:07:25;20.10;72.50
10968;DHT22;5536;49.602;10.980;2022-07-23T04:09:52;20.10;72.80
10968;DHT22;5536;49.602;10.980;2022-07-23T04:12:19;20.10;89.90
10968;DHT22;5536;49.602;10.980;2022-07-23T04:14:47;20.00;95.50
10968;DHT22;5536;49.602;10.980;2022-07-23T04:17:14;20.00;90.20
10968;DHT22;5536;49.602;10.980;2022-07-23T04:19:41;20.00;86.90
10968;DHT22;5536;49.602;10.980;2022-07-23T04:22:09;20.10;79.00
10968;DHT22;5536;49.602;10.980;2022-07-23T04:24:37;20.00;86.00
10968;DHT22;5536;49.602;10.980;2022-07-23T04:27:05;20.00;96.00
10968;DHT22;5536;49.602;10.980;2022-07-23T04:29:32;20.00;89.10
10968;DHT22;5536;49.602;10.980;2022-07-23T04:32:00;20.00;90.30
10968;DHT22;5536;49.602;10.980;2022-07-23T04:34:27;20.00;88.00
10968;DHT22;5536;49.602;10.980;2022-07-23T04:36:54;20.10;81.50
10968;DHT22;5536;49.602;10.980;2022-07-23T04:39:22;20.20;76.80
10968;DHT22;5536;49.602;10.980;2022-07-23T04:41:49;20.20;59.80
10968;DHT22;5536;49.602;10.980;2022-07-23T04:44:16;20.30;40.20
10968;DHT22;5536;49.602;10.980;2022-07-23T04:46:43;20.30;54.70
10968;DHT22;5536;49.602;10.980;2022-07-23T04:49:11;20.40;38.00
10968;DHT22;5536;49.602;10.980;2022-07-23T04:51:38;20.50;52.00
10968;DHT22;5536;49.602;10.980;2022-07-23T04:54:05;20.60;15.50
10968;DHT22;5536;49.602;10.980;2022-07-23T04:56:32;20.70;5.50
10968;DHT22;5536;49.602;10.980;2022-07-23T04:58:59;20.70;1.00
10968;DHT22;5536;49.602;10.980;2022-07-23T05:01:26;20.70;4.00
10968;DHT22;5536;49.602;10.980;2022-07-23T05:03:52;20.60;1.00
10968;DHT22;5536;49.602;10.980;2022-07-23T05:06:21;20.80;1.00
10968;DHT22;5536;49.602;10.980;2022-07-23T05:08:48;20.80;1.00
10968;DHT22;5536;49.602;10.980;2022-07-23T05:11:15;20.90;1.00
10968;DHT22;5536;49.602;10.980;2022-07-23T05:13:41;21.00;1.00
10968;DHT22;5536;49.602;10.980;2022-07-23T05:16:08;21.10;1.00
10968;DHT22;5536;49.602;10.980;2022-07-23T05:18:35;21.20;1.00
10968;DHT22;5536;49.602;10.980;2022-07-23T05:21:02;21.30;1.00
10968;DHT22;5536;49.602;10.980;2022-07-23T05:23:31;21.30;1.00
10968;DHT22;5536;49.602;10.980;2022-07-23T05:25:57;21.30;1.00
10968;DHT22;5536;49.602;10.980;2022-07-23T05:28:25;21.30;1.00
10968;DHT22;5536;49.602;10.980;2022-07-23T05:30:52;21.30;1.00
10968;DHT22;5536;49.602;10.980;2022-07-23T05:33:19;21.20;1.00
10968;DHT22;5536;49.602;10.980;2022-07-23T05:35:46;21.30;1.00
10968;DHT22;5536;49.602;10.980;2022-07-23T05:38:13;21.50;1.00
10968;DHT22;5536;49.602;10.980;2022-07-23T05:40:41;21.70;1.00
10968;DHT22;5536;49.602;10.980;2022-07-23T05:43:08;21.90;1.00
10968;DHT22;5536;49.602;10.980;2022-07-23T05:45:35;22.10;1.00
10968;DHT22;5536;49.602;10.980;2022-07-23T05:48:02;22.20;1.00
10968;DHT22;5536;49.602;10.980;2022-07-23T05:50:29;22.30;1.00
10968;DHT22;5536;49.602;10.980;2022-07-23T05:52:56;22.40;1.00
10968;DHT22;5536;49.602;10.980;2022-07-23T05:55:23;22.50;1.00
10968;DHT22;5536;49.602;10.980;2022-07-23T05:57:51;22.50;1.00
10968;DHT22;5536;49.602;10.980;2022-07-23T06:00:18;22.50;1.00
10968;DHT22;5536;49.602;10.980;2022-07-23T06:02:45;22.50;1.00
10968;DHT22;5536;49.602;10.980;2022-07-23T06:05:12;22.60;1.00
10968;DHT22;5536;49.602;10.980;2022-07-23T06:07:39;22.60;1.00
10968;DHT22;5536;49.602;10.980;2022-07-23T06:10:07;22.70;1.00
10968;DHT22;5536;49.602;10.980;2022-07-23T06:12:34;22.70;1.00
10968;DHT22;5536;49.602;10.980;2022-07-23T06:15:03;22.90;1.00
10968;DHT22;5536;49.602;10.980;2022-07-23T06:17:31;22.90;1.00
10968;DHT22;5536;49.602;10.980;2022-07-23T06:19:58;22.80;1.00
10968;DHT22;5536;49.602;10.980;2022-07-23T06:22:25;22.70;1.00
10968;DHT22;5536;49.602;10.980;2022-07-23T06:24:52;22.70;1.00
10968;DHT22;5536;49.602;10.980;2022-07-23T06:27:19;22.70;1.00
10968;DHT22;5536;49.602;10.980;2022-07-23T06:29:46;22.80;1.00
10968;DHT22;5536;49.602;10.980;2022-07-23T06:32:14;22.90;1.00
10968;DHT22;5536;49.602;10.980;2022-07-23T06:34:41;23.00;1.00
10968;DHT22;5536;49.602;10.980;2022-07-23T06:37:08;23.20;1.00
10968;DHT22;5536;49.602;10.980;2022-07-23T06:39:35;23.40;99.90
10968;DHT22;5536;49.602;10.980;2022-07-23T06:42:02;23.60;99.90
10968;DHT22;5536;49.602;10.980;2022-07-23T06:44:29;23.80;99.90
10968;DHT22;5536;49.602;10.980;2022-07-23T06:46:56;24.00;99.90
10968;DHT22;5536;49.602;10.980;2022-07-23T06:49:24;24.20;99.90
10968;DHT22;5536;49.602;10.980;2022-07-23T06:51:51;24.40;99.90
10968;DHT22;5536;49.602;10.980;2022-07-23T06:54:18;24.60;99.90
10968;DHT22;5536;49.602;10.980;2022-07-23T06:56:45;24.60;99.80
10968;DHT22;5536;49.602;10.980;2022-07-23T06:59:12;24.50;99.80
10968;DHT22;5536;49.602;10.980;2022-07-23T07:01:39;24.50;99.50
10968;DHT22;5536;49.602;10.980;2022-07-23T07:04:06;24.50;99.80
10968;DHT22;5536;49.602;10.980;2022-07-23T07:06:34;24.40;99.40
10968;DHT22;5536;49.602;10.980;2022-07-23T07:09:01;24.60;99.20
10968;DHT22;5536;49.602;10.980;2022-07-23T07:11:28;24.70;99.00
10968;DHT22;5536;49.602;10.980;2022-07-23T07:13:55;24.70;98.80
10968;DHT22;5536;49.602;10.980;2022-07-23T07:16:22;24.90;98.90
10968;DHT22;5536;49.602;10.980;2022-07-23T07:18:49;25.10;98.40
10968;DHT22;5536;49.602;10.980;2022-07-23T07:21:16;25.10;98.00
10968;DHT22;5536;49.602;10.980;2022-07-23T07:23:45;25.20;97.90
10968;DHT22;5536;49.602;10.980;2022-07-23T07:26:12;25.30;97.80
10968;DHT22;5536;49.602;10.980;2022-07-23T07:28:39;25.20;98.10
10968;DHT22;5536;49.602;10.980;2022-07-23T07:31:06;25.10;97.90
10968;DHT22;5536;49.602;10.980;2022-07-23T07:33:33;24.80;98.60
10968;DHT22;5536;49.602;10.980;2022-07-23T07:36:00;24.70;98.50
10968;DHT22;5536;49.602;10.980;2022-07-23T07:38:27;24.40;97.70
10968;DHT22;5536;49.602;10.980;2022-07-23T07:40:55;24.20;98.10
10968;DHT22;5536;49.602;10.980;2022-07-23T07:43:22;23.80;98.40
10968;DHT22;5536;49.602;10.980;2022-07-23T07:45:49;23.50;98.50
10968;DHT22;5536;49.602;10.980;2022-07-23T07:48:16;23.40;99.30
10968;DHT22;5536;49.602;10.980;2022-07-23T07:50:43;23.00;99.90
10968;DHT22;5536;49.602;10.980;2022-07-23T07:53:10;22.40;99.90
10968;DHT22;5536;49.602;10.980;2022-07-23T07:55:37;21.80;99.90
10968;DHT22;5536;49.602;10.980;2022-07-23T07:58:05;21.50;99.90
10968;DHT22;5536;49.602;10.980;2022-07-23T08:00:32;21.30;99.90
10968;DHT22;5536;49.602;10.980;2022-07-23T08:02:59;21.20;99.90
10968;DHT22;5536;49.602;10.980;2022-07-23T08:05:27;21.20;99.90
10968;DHT22;5536;49.602;10.980;2022-07-23T08:07:55;21.20;99.90
10968;DHT22;5536;49.602;10.980;2022-07-23T08:10:22;21.10;99.90
10968;DHT22;5536;49.602;10.980;2022-07-23T08:12:50;21.20;99.90
10968;DHT22;5536;49.602;10.980;2022-07-23T08:15:21;21.10;99.90
10968;DHT22;5536;49.602;10.980;2022-07-23T08:17:48;21.10;99.90
10968;DHT22;5536;49.602;10.980;2022-07-23T08:20:16;21.00;99.90
10968;DHT22;5536;49.602;10.980;2022-07-23T08:22:46;21.00;99.90
10968;DHT22;5536;49.602;10.980;2022-07-23T08:25:13;21.00;99.90
10968;DHT22;5536;49.602;10.980;2022-07-23T08:27:40;21.00;99.90
10968;DHT22;5536;49.602;10.980;2022-07-23T08:30:08;20.90;99.90
10968;DHT22;5536;49.602;10.980;2022-07-23T08:32:54;20.80;99.90
10968;DHT22;5536;49.602;10.980;2022-07-23T08:35:24;20.70;99.90
10968;DHT22;5536;49.602;10.980;2022-07-23T08:37:51;20.60;99.90
10968;DHT22;5536;49.602;10.980;2022-07-23T08:40:19;20.80;99.90
10968;DHT22;5536;49.602;10.980;2022-07-23T08:42:48;20.90;99.90
10968;DHT22;5536;49.602;10.980;2022-07-23T08:45:17;21.00;99.90
10968;DHT22;5536;49.602;10.980;2022-07-23T08:47:49;21.10;99.90
10968;DHT22;5536;49.602;10.980;2022-07-23T08:50:18;21.20;99.90
10968;DHT22;5536;49.602;10.980;2022-07-23T08:52:45;21.30;99.90
10968;DHT22;5536;49.602;10.980;2022-07-23T08:55:12;21.50;99.90
10968;DHT22;5536;49.602;10.980;2022-07-23T08:57:39;21.60;99.90
10968;DHT22;5536;49.602;10.980;2022-07-23T09:00:07;21.60;99.90
10968;DHT22;5536;49.602;10.980;2022-07-23T09:02:41;21.70;99.90
10968;DHT22;5536;49.602;10.980;2022-07-23T09:05:09;21.60;99.90
10968;DHT22;5536;49.602;10.980;2022-07-23T09:08:08;21.70;99.90
10968;DHT22;5536;49.602;10.980;2022-07-23T09:10:51;21.80;99.90
10968;DHT22;5536;49.602;10.980;2022-07-23T09:13:35;21.80;99.90
10968;DHT22;5536;49.602;10.980;2022-07-23T09:16:06;22.00;99.90
10968;DHT22;5536;49.602;10.980;2022-07-23T09:18:39;22.40;68.30
10968;DHT22;5536;49.602;10.980;2022-07-23T09:21:18;22.60;58.10
10968;DHT22;5536;49.602;10.980;2022-07-23T09:23:49;22.60;7.80
10968;DHT22;5536;49.602;10.980;2022-07-23T09:26:22;22.70;1.00
10968;DHT22;5536;49.602;10.980;2022-07-23T09:28:58;22.80;91.80
10968;DHT22;5536;49.602;10.980;2022-07-23T09:31:30;22.90;54.80
10968;DHT22;5536;49.602;10.980;2022-07-23T09:34:10;23.10;95.70
10968;DHT22;5536;49.602;10.980;2022-07-23T09:36:38;23.00;33.60
10968;DHT22;5536;49.602;10.980;2022-07-23T09:39:07;22.80;3.10
10968;DHT22;5536;49.602;10.980;2022-07-23T09:41:36;22.80;42.60
10968;DHT22;5536;49.602;10.980;2022-07-23T09:44:08;22.70;1.00
10968;DHT22;5536;49.602;10.980;2022-07-23T09:46:36;22.60;1.00
10968;DHT22;5536;49.602;10.980;2022-07-23T09:49:12;22.80;1.00
10968;DHT22;5536;49.602;10.980;2022-07-23T09:51:44;23.00;1.00
10968;DHT22;5536;49.602;10.980;2022-07-23T09:54:24;23.00;1.00
10968;DHT22;5536;49.602;10.980;2022-07-23T09:56:52;23.10;1.00
10968;DHT22;5536;49.602;10.980;2022-07-23T09:59:23;23.20;1.00
10968;DHT22;5536;49.602;10.980;2022-07-23T10:01:52;23.30;1.00
10968;DHT22;5536;49.602;10.980;2022-07-23T10:04:21;23.20;1.00
10968;DHT22;5536;49.602;10.980;2022-07-23T10:06:51;23.10;1.00
10968;DHT22;5536;49.602;10.980;2022-07-23T10:09:24;22.90;1.00
10968;DHT22;5536;49.602;10.980;2022-07-23T10:11:55;22.70;1.00
10968;DHT22;5536;49.602;10.980;2022-07-23T10:14:26;22.60;11.30
10968;DHT22;5536;49.602;10.980;2022-07-23T10:16:57;22.40;23.60
10968;DHT22;5536;49.602;10.980;2022-07-23T10:19:24;22.50;99.90
10968;DHT22;5536;49.602;10.980;2022-07-23T10:21:56;22.60;48.60
10968;DHT22;5536;49.602;10.980;2022-07-23T10:24:36;22.60;1.00
10968;DHT22;5536;49.602;10.980;2022-07-23T10:27:35;22.70;25.80
10968;DHT22;5536;49.602;10.980;2022-07-23T10:30:05;22.40;99.90
10968;DHT22;5536;49.602;10.980;2022-07-23T10:32:40;22.30;99.90
10968;DHT22;5536;49.602;10.980;2022-07-23T10:35:15;22.30;99.90
10968;DHT22;5536;49.602;10.980;2022-07-23T10:37:49;22.30;99.90
10968;DHT22;5536;49.602;10.980;2022-07-23T10:40:18;22.40;99.90
10968;DHT22;5536;49.602;10.980;2022-07-23T10:42:48;22.70;99.90
10968;DHT22;5536;49.602;10.980;2022-07-23T10:45:27;22.90;99.90
10968;DHT22;5536;49.602;10.980;2022-07-23T10:47:55;23.10;91.40
10968;DHT22;5536;49.602;10.980;2022-07-23T10:50:24;23.00;58.00
10968;DHT22;5536;49.602;10.980;2022-07-23T10:53:15;23.20;99.90
10968;DHT22;5536;49.602;10.980;2022-07-23T10:55:53;23.10;99.20
10968;DHT22;5536;49.602;10.980;2022-07-23T10:58:23;22.90;99.90
10968;DHT22;5536;49.602;10.980;2022-07-23T11:00:50;22.90;99.90
10968;DHT22;5536;49.602;10.980;2022-07-23T11:03:34;22.80;94.00
10968;DHT22;5536;49.602;10.980;2022-07-23T11:06:04;23.00;99.90
10968;DHT22;5536;49.602;10.980;2022-07-23T11:08:32;22.90;99.90
10968;DHT22;5536;49.602;10.980;2022-07-23T11:11:11;22.90;93.40
10968;DHT22;5536;49.602;10.980;2022-07-23T11:13:46;22.70;92.10
10968;DHT22;5536;49.602;10.980;2022-07-23T11:16:18;22.70;99.90
10968;DHT22;5536;49.602;10.980;2022-07-23T11:19:05;22.70;99.90
10968;DHT22;5536;49.602;10.980;2022-07-23T11:21:49;22.60;99.90
10968;DHT22;5536;49.602;10.980;2022-07-23T11:24:18;22.50;81.80
10968;DHT22;5536;49.602;10.980;2022-07-23T11:26:56;22.60;99.90
10968;DHT22;5536;49.602;10.980;2022-07-23T11:29:42;22.60;99.90
10968;DHT22;5536;49.602;10.980;2022-07-23T11:32:21;22.60;99.90
10968;DHT22;5536;49.602;10.980;2022-07-23T11:34:50;22.80;99.90
10968;DHT22;5536;49.602;10.980;2022-07-23T11:37:37;22.70;97.80
10968;DHT22;5536;49.602;10.980;2022-07-23T11:40:07;22.70;99.90
10968;DHT22;5536;49.602;10.980;2022-07-23T11:42:37;22.90;99.90
10968;DHT22;5536;49.602;10.980;2022-07-23T11:45:06;23.00;99.90
10968;DHT22;5536;49.602;10.980;2022-07-23T11:47:34;23.00;92.00
10968;DHT22;5536;49.602;10.980;2022-07-23T11:50:03;23.20;40.40
10968;DHT22;5536;49.602;10.980;2022-07-23T11:52:32;23.50;84.90
10968;DHT22;5536;49.602;10.980;2022-07-23T11:55:01;24.00;1.00
10968;DHT22;5536;49.602;10.980;2022-07-23T11:57:31;24.50;1.00
10968;DHT22;5536;49.602;10.980;2022-07-23T12:00:03;24.50;1.00
10968;DHT22;5536;49.602;10.980;2022-07-23T12:02:31;24.20;1.00
10968;DHT22;5536;49.602;10.980;2022-07-23T12:04:58;24.20;1.00
10968;DHT22;5536;49.602;10.980;2022-07-23T12:07:30;24.20;1.00
10968;DHT22;5536;49.602;10.980;2022-07-23T12:09:59;24.40;1.00
10968;DHT22;5536;49.602;10.980;2022-07-23T12:12:27;25.00;1.00
10968;DHT22;5536;49.602;10.980;2022-07-23T12:14:57;25.10;1.00
10968;DHT22;5536;49.602;10.980;2022-07-23T12:17:29;25.90;1.00
10968;DHT22;5536;49.602;10.980;2022-07-23T12:19:57;26.10;11.90
10968;DHT22;5536;49.602;10.980;2022-07-23T12:22:26;26.60;99.90
10968;DHT22;5536;49.602;10.980;2022-07-23T12:25:01;27.10;1.00
10968;DHT22;5536;49.602;10.980;2022-07-23T12:27:30;28.30;1.00
10968;DHT22;5536;49.602;10.980;2022-07-23T12:29:57;29.10;99.90
10968;DHT22;5536;49.602;10.980;2022-07-23T12:32:26;28.90;99.90
10968;DHT22;5536;49.602;10.980;2022-07-23T12:35:04;29.60;99.90
10968;DHT22;5536;49.602;10.980;2022-07-23T12:37:33;30.00;1.00
10968;DHT22;5536;49.602;10.980;2022-07-23T12:40:22;30.10;99.90
10968;DHT22;5536;49.602;10.980;2022-07-23T12:42:50;30.20;1.00
10968;DHT22;5536;49.602;10.980;2022-07-23T12:45:17;29.80;1.00
10968;DHT22;5536;49.602;10.980;2022-07-23T12:47:56;30.00;1.00
10968;DHT22;5536;49.602;10.980;2022-07-23T12:50:58;30.10;1.00
10968;DHT22;5536;49.602;10.980;2022-07-23T12:53:27;30.30;1.00
10968;DHT22;5536;49.602;10.980;2022-07-23T12:56:00;30.70;99.90
10968;DHT22;5536;49.602;10.980;2022-07-23T12:58:39;31.40;99.90
10968;DHT22;5536;49.602;10.980;2022-07-23T13:01:07;31.00;99.90
10968;DHT22;5536;49.602;10.980;2022-07-23T13:03:37;31.40;96.50
10968;DHT22;5536;49.602;10.980;2022-07-23T13:06:07;32.10;5.10
10968;DHT22;5536;49.602;10.980;2022-07-23T13:08:36;32.20;1.00
10968;DHT22;5536;49.602;10.980;2022-07-23T13:11:05;31.90;1.00
10968;DHT22;5536;49.602;10.980;2022-07-23T13:13:33;30.20;1.00
10968;DHT22;5536;49.602;10.980;2022-07-23T13:16:02;29.50;14.40
10968;DHT22;5536;49.602;10.980;2022-07-23T13:18:29;29.60;99.90
10968;DHT22;5536;49.602;10.980;2022-07-23T13:20:56;30.40;99.90
10968;DHT22;5536;49.602;10.980;2022-07-23T13:23:24;31.00;1.00
10968;DHT22;5536;49.602;10.980;2022-07-23T13:25:52;30.70;1.00
10968;DHT22;5536;49.602;10.980;2022-07-23T13:28:20;29.90;1.00
10968;DHT22;5536;49.602;10.980;2022-07-23T13:30:47;29.20;25.50
10968;DHT22;5536;49.602;10.980;2022-07-23T13:33:15;29.10;29.00
10968;DHT22;5536;49.602;10.980;2022-07-23T13:35:43;29.00;53.50
10968;DHT22;5536;49.602;10.980;2022-07-23T13:38:10;28.80;53.10
10968;DHT22;5536;49.602;10.980;2022-07-23T13:40:41;28.40;99.90
10968;DHT22;5536;49.602;10.980;2022-07-23T13:43:10;28.10;99.90
10968;DHT22;5536;49.602;10.980;2022-07-23T13:45:38;28.10;99.90
10968;DHT22;5536;49.602;10.980;2022-07-23T13:48:05;28.00;1.00
10968;DHT22;5536;49.602;10.980;2022-07-23T13:50:33;28.90;99.90
10968;DHT22;5536;49.602;10.980;2022-07-23T13:53:01;30.10;99.90
10968;DHT22;5536;49.602;10.980;2022-07-23T13:55:29;30.80;1.00
10968;DHT22;5536;49.602;10.980;2022-07-23T13:57:57;30.60;1.00
10968;DHT22;5536;49.602;10.980;2022-07-23T14:00:24;30.30;1.00
10968;DHT22;5536;49.602;10.980;2022-07-23T14:02:51;29.70;1.00
10968;DHT22;5536;49.602;10.980;2022-07-23T14:05:18;29.20;1.00
10968;DHT22;5536;49.602;10.980;2022-07-23T14:07:45;28.90;1.00
10968;DHT22;5536;49.602;10.980;2022-07-23T14:10:15;28.20;34.60
10968;DHT22;5536;49.602;10.980;2022-07-23T14:12:42;28.00;99.90
10968;DHT22;5536;49.602;10.980;2022-07-23T14:15:11;28.60;99.90
10968;DHT22;5536;49.602;10.980;2022-07-23T14:17:40;29.30;99.90
10968;DHT22;5536;49.602;10.980;2022-07-23T14:20:09;29.20;1.00
10968;DHT22;5536;49.602;10.980;2022-07-23T14:22:36;28.70;28.40
10968;DHT22;5536;49.602;10.980;2022-07-23T14:25:05;28.60;99.90
10968;DHT22;5536;49.602;10.980;2022-07-23T14:27:32;29.00;3.70
10968;DHT22;5536;49.602;10.980;2022-07-23T14:29:59;29.50;1.00
10968;DHT22;5536;49.602;10.980;2022-07-23T14:32:27;29.90;1.00
10968;DHT22;5536;49.602;10.980;2022-07-23T14:34:54;30.20;1.00
10968;DHT22;5536;49.602;10.980;2022-07-23T14:37:21;29.80;1.00
10968;DHT22;5536;49.602;10.980;2022-07-23T14:39:48;29.80;1.00
10968;DHT22;5536;49.602;10.980;2022-07-23T14:42:15;30.10;1.00
10968;DHT22;5536;49.602;10.980;2022-07-23T14:44:42;30.20;1.00
10968;DHT22;5536;49.602;10.980;2022-07-23T14:47:09;30.10;1.00
10968;DHT22;5536;49.602;10.980;2022-07-23T14:49:37;30.10;1.00
10968;DHT22;5536;49.602;10.980;2022-07-23T14:52:07;30.30;99.90
10968;DHT22;5536;49.602;10.980;2022-07-23T14:54:34;30.80;99.90
10968;DHT22;5536;49.602;10.980;2022-07-23T14:57:02;31.30;99.90
10968;DHT22;5536;49.602;10.980;2022-07-23T14:59:32;31.40;99.90
10968;DHT22;5536;49.602;10.980;2022-07-23T15:01:59;31.30;99.90
10968;DHT22;5536;49.602;10.980;2022-07-23T15:04:29;31.70;99.90
10968;DHT22;5536;49.602;10.980;2022-07-23T15:07:07;31.70;99.90
10968;DHT22;5536;49.602;10.980;2022-07-23T15:09:34;31.40;99.90
10968;DHT22;5536;49.602;10.980;2022-07-23T15:12:02;30.90;99.90
10968;DHT22;5536;49.602;10.980;2022-07-23T15:14:29;30.50;99.90
10968;DHT22;5536;49.602;10.980;2022-07-23T15:16:56;30.30;99.90
10968;DHT22;5536;49.602;10.980;2022-07-23T15:19:23;29.80;99.90
10968;DHT22;5536;49.602;10.980;2022-07-23T15:21:50;29.30;99.90
10968;DHT22;5536;49.602;10.980;2022-07-23T15:24:18;29.20;99.90
10968;DHT22;5536;49.602;10.980;2022-07-23T15:26:45;29.50;99.90
10968;DHT22;5536;49.602;10.980;2022-07-23T15:29:12;29.60;99.90
10968;DHT22;5536;49.602;10.980;2022-07-23T15:31:39;29.40;99.90
10968;DHT22;5536;49.602;10.980;2022-07-23T15:34:06;29.50;99.90
10968;DHT22;5536;49.602;10.980;2022-07-23T15:36:33;29.20;99.90
10968;DHT22;5536;49.602;10.980;2022-07-23T15:39:01;29.00;99.90
10968;DHT22;5536;49.602;10.980;2022-07-23T15:41:29;28.90;99.90
10968;DHT22;5536;49.602;10.980;2022-07-23T15:43:56;28.90;99.90
10968;DHT22;5536;49.602;10.980;2022-07-23T15:46:24;29.00;99.90
10968;DHT22;5536;49.602;10.980;2022-07-23T15:48:51;28.90;99.90